Time;durP1;ratioP1;P1;durP2;ratioP2;P2;SDS_P1;SDS_P2;PMS_P1;PMS_P2;Temp;Humidity;BMP_temperature;BMP_pressure;BME280_temperature;BME280_humidity;BME280_pressure;Samples;Min_cycle;Max_cycle;Signal;HPM_P1;HPM_P2
2021/11/26 00:02:06;;;;;;;49.50;22.00;;;;;;;;;;5030253;28;20036;-62
2021/11/26 00:04:32;;;;;;;47.45;23.15;;;;;;;;;;5029952;28;20119;-62
2021/11/26 00:06:58;;;;;;;49.60;21.58;;;;;;;;;;5052627;23;20041;-64
2021/11/26 00:09:24;;;;;;;52.00;22.95;;;;;;;;;;5029034;28;20104;-65
2021/11/26 00:11:50;;;;;;;48.95;20.10;;;;;;;;;;5030246;28;20100;-65
2021/11/26 00:16:43;;;;;;;44.42;20.10;;;;;;;;;;5030403;28;20029;-65
2021/11/26 00:19:09;;;;;;;43.33;23.73;;;;;;;;;;5030588;28;20053;-65
2021/11/26 00:21:37;;;;;;;43.88;22.65;;;;;;;;;;5029076;28;20116;-64
2021/11/26 00:24:04;;;;;;;42.53;18.17;;;;;;;;;;5030707;28;20072;-64
2021/11/26 00:26:31;;;;;;;44.85;21.40;;;;;;;;;;5030717;28;20069;-65
2021/11/26 00:28:57;;;;;;;42.65;21.33;;;;;;;;;;5029376;28;20049;-62
2021/11/26 00:31:23;;;;;;;46.10;22.20;;;;;;;;;;5030745;28;20089;-64
2021/11/26 00:33:49;;;;;;;49.13;21.35;;;;;;;;;;5030518;28;20029;-64
2021/11/26 00:36:15;;;;;;;45.25;19.25;;;;;;;;;;5029260;28;20197;-64
2021/11/26 00:38:41;;;;;;;47.15;21.73;;;;;;;;;;5029258;28;20037;-64
2021/11/26 00:41:07;;;;;;;54.90;23.45;;;;;;;;;;5030727;28;20034;-64
2021/11/26 00:43:33;;;;;;;46.65;21.67;;;;;;;;;;5030403;28;20038;-64
2021/11/26 00:45:58;;;;;;;46.08;22.88;;;4.70;99.90;;;;;;5029609;28;20026;-64
2021/11/26 00:48:24;;;;;;;54.05;18.65;;;;;;;;;;5030958;28;20108;-65
2021/11/26 00:50:51;;;;;;;47.00;22.30;;;;;;;;;;5029302;28;20026;-64
2021/11/26 00:53:17;;;;;;;38.88;18.10;;;;;;;;;;5030499;28;20549;-64
2021/11/26 00:55:43;;;;;;;50.85;22.50;;;;;;;;;;5030532;28;20473;-64
2021/11/26 00:58:10;;;;;;;48.72;23.45;;;;;;;;;;5030695;28;20026;-65
2021/11/26 01:00:36;;;;;;;58.08;23.92;;;;;;;;;;5030898;28;20471;-64
2021/11/26 01:03:06;;;;;;;57.78;24.38;;;;;;;;;;5029841;28;20021;-64
2021/11/26 01:05:32;;;;;;;49.50;23.27;;;;;;;;;;5032285;28;20022;-64
2021/11/26 01:07:58;;;;;;;48.55;24.80;;;;;;;;;;5032688;28;20505;-64
2021/11/26 01:10:25;;;;;;;54.78;26.50;;;;;;;;;;5032621;28;20057;-64
2021/11/26 01:12:51;;;;;;;61.88;30.45;;;;;;;;;;5033604;28;20080;-64
2021/11/26 01:15:19;;;;;;;66.03;28.58;;;;;;;;;;5033600;28;20470;-64
2021/11/26 01:17:46;;;;;;;68.80;31.48;;;;;;;;;;5032503;28;20025;-64
2021/11/26 01:20:17;;;;;;;61.78;30.92;;;;;;;;;;5032092;28;20029;-64
2021/11/26 01:22:44;;;;;;;68.63;28.63;;;;;;;;;;5033605;28;20025;-64
2021/11/26 01:25:10;;;;;;;65.72;31.33;;;;;;;;;;5033495;28;20014;-64
2021/11/26 01:27:37;;;;;;;74.60;31.27;;;;;;;;;;5033351;28;20021;-64
2021/11/26 01:30:10;;;;;;;79.35;36.10;;;;;;;;;;5033645;28;20037;-64
2021/11/26 01:32:36;;;;;;;56.17;26.90;;;;;;;;;;5032066;28;20080;-64
2021/11/26 01:35:02;;;;;;;72.70;27.90;;;;;;;;;;5033622;28;20080;-64
2021/11/26 01:37:28;;;;;;;77.28;35.97;;;;;;;;;;5033378;28;20025;-65
2021/11/26 01:39:55;;;;;;;79.18;33.72;;;;;;;;;;5033196;28;20465;-64
2021/11/26 01:42:21;;;;;;;68.70;28.65;;;;;;;;;;5032947;28;20018;-64
2021/11/26 01:44:47;;;;;;;89.13;37.33;;;;;;;;;;5033380;28;20108;-64
2021/11/26 01:47:13;;;;;;;89.18;36.47;;;;;;;;;;5033166;28;20064;-64
2021/11/26 01:49:40;;;;;;;81.10;33.90;;;;;;;;;;5032005;28;20029;-64
2021/11/26 01:52:06;;;;;;;70.55;30.75;;;;;;;;;;5031678;28;20033;-65
2021/11/26 01:54:32;;;;;;;93.70;37.03;;;;;;;;;;5033307;28;20036;-65
2021/11/26 01:56:58;;;;;;;67.00;30.00;;;;;;;;;;5031873;28;20445;-64
2021/11/26 01:59:24;;;;;;;73.80;33.65;;;;;;;;;;5031929;28;20486;-63
2021/11/26 02:01:50;;;;;;;74.30;31.98;;;;;;;;;;5032720;28;20075;-65
2021/11/26 02:04:16;;;;;;;72.45;33.53;;;;;;;;;;5031721;28;20466;-65
2021/11/26 02:06:42;;;;;;;80.93;32.50;;;;;;;;;;5032627;28;20037;-65
2021/11/26 02:09:08;;;;;;;80.80;35.67;;;;;;;;;;5031778;28;20396;-65
2021/11/26 02:11:34;;;;;;;70.68;33.60;;;;;;;;;;5032621;28;20112;-64
2021/11/26 02:14:01;;;;;;;71.75;33.33;;;;;;;;;;5031180;28;20029;-64
2021/11/26 02:16:27;;;;;;;57.92;27.77;;;;;;;;;;5032017;28;20029;-63
2021/11/26 02:18:53;;;;;;;72.68;30.98;;;;;;;;;;5031301;28;20406;-64
2021/11/26 02:21:20;;;;;;;67.32;29.35;;;;;;;;;;5030997;28;20021;-64
2021/11/26 02:23:46;;;;;;;73.25;31.45;;;;;;;;;;5031029;28;20049;-65
2021/11/26 02:26:12;;;;;;;67.03;31.25;;;;;;;;;;5032250;28;20536;-65
2021/11/26 02:28:38;;;;;;;56.92;29.42;;;;;;;;;;5031053;28;20485;-63
2021/11/26 02:31:04;;;;;;;63.33;28.02;;;;;;;;;;5030908;28;20037;-64
2021/11/26 02:33:30;;;;;;;50.85;25.45;;;;;;;;;;5030886;28;20108;-65
2021/11/26 02:35:56;;;;;;;60.10;28.55;;;;;;;;;;5032091;28;20029;-65
2021/11/26 02:38:24;;;;;;;62.42;28.65;;;;;;;;;;5032050;28;20440;-65
2021/11/26 02:40:50;;;;;;;47.85;24.15;;;;;;;;;;5032014;28;20029;-65
2021/11/26 02:43:16;;;;;;;64.32;27.90;;;;;;;;;;5030495;28;20017;-65
2021/11/26 02:45:44;;;;;;;60.60;24.40;;;;;;;;;;5031823;28;20051;-64
2021/11/26 02:48:12;;;;;;;63.67;29.17;;;;;;;;;;5031926;28;20021;-65
2021/11/26 02:50:38;;;;;;;59.50;30.23;;;;;;;;;;5031830;28;20028;-64
2021/11/26 02:53:05;;;;;;;57.85;26.63;;;;;;;;;;5031506;28;20022;-66
2021/11/26 02:55:32;;;;;;;56.38;28.13;;;;;;;;;;5031861;28;20151;-65
2021/11/26 02:57:58;;;;;;;54.00;21.25;;;;;;;;;;5030362;28;20025;-66
2021/11/26 03:00:25;;;;;;;58.55;28.88;;;;;;;;;;5031656;28;20108;-65
2021/11/26 03:02:52;;;;;;;60.75;30.10;;;;;;;;;;5031363;28;20029;-65
2021/11/26 03:05:18;;;;;;;56.03;29.88;;;;;;;;;;5031356;28;20500;-65
2021/11/26 03:07:44;;;;;;;69.97;29.58;;;;;;;;;;5031492;28;20477;-65
2021/11/26 03:10:16;;;;;;;70.57;33.47;;;;;;;;;;5031490;28;20031;-64
2021/11/26 03:12:42;;;;;;;55.05;28.52;;;;;;;;;;5031378;28;20049;-65
2021/11/26 03:15:08;;;;;;;70.18;33.60;;;;;;;;;;5029996;28;20409;-65
2021/11/26 03:17:34;;;;;;;64.35;29.88;;;;;;;;;;5031370;28;20039;-66
2021/11/26 03:20:00;;;;;;;62.40;31.13;;;;;;;;;;5031310;28;20108;-64
2021/11/26 03:22:26;;;;;;;64.70;27.67;;;;;;;;;;5029608;28;20033;-64
2021/11/26 03:24:52;;;;;;;64.43;29.67;;;;;;;;;;5030007;28;20053;-65
2021/11/26 03:27:18;;;;;;;66.43;30.35;;;;;;;;;;5030964;28;20021;-64
2021/11/26 03:29:44;;;;;;;66.93;31.67;;;;;;;;;;5029828;28;20082;-64
2021/11/26 03:32:10;;;;;;;67.03;32.30;;;;;;;;;;5029639;28;20108;-64
2021/11/26 03:34:36;;;;;;;69.50;31.02;;;;;;;;;;5031268;28;20524;-64
2021/11/26 03:37:02;;;;;;;63.15;30.17;;;;;;;;;;5030911;28;20061;-65
2021/11/26 03:39:28;;;;;;;69.25;31.38;;;;;;;;;;5030919;28;20029;-65
2021/11/26 03:41:54;;;;;;;72.07;31.63;;;;;;;;;;5029562;28;20018;-65
2021/11/26 03:44:20;;;;;;;73.65;34.17;;;;;;;;;;5030830;28;20040;-65
2021/11/26 03:46:46;;;;;;;78.93;35.38;;;;;;;;;;5030946;28;20071;-64
2021/11/26 03:49:12;;;;;;;67.53;34.42;;;;;;;;;;5030991;28;20083;-65
2021/11/26 03:51:38;;;;;;;76.07;35.03;;;;;;;;;;5030614;28;20053;-65
2021/11/26 03:54:04;;;;;;;76.03;36.72;;;;;;;;;;5030798;28;20044;-65
2021/11/26 03:56:30;;;;;;;75.20;33.05;;;;;;;;;;5029416;28;20032;-65
2021/11/26 03:58:56;;;;;;;67.15;31.30;;;;;;;;;;5030753;28;20044;-64
2021/11/26 04:01:22;;;;;;;58.95;27.75;;;;;;;;;;5030921;28;20470;-65
2021/11/26 04:03:47;;;;;;;68.80;29.77;;;;;;;;;;5030542;28;20033;-65
2021/11/26 04:06:13;;;;;;;67.03;31.48;;;;;;;;;;5030561;28;20049;-64
2021/11/26 04:08:39;;;;;;;60.47;26.75;;;;;;;;;;5029559;28;20481;-65
2021/11/26 04:11:05;;;;;;;69.10;30.02;;;;;;;;;;5029508;28;20022;-65
2021/11/26 04:13:31;;;;;;;61.70;26.85;;;;;;;;;;5029228;28;20501;-65
2021/11/26 04:16:03;;;;;;;77.55;33.78;;;;;;;;;;5031204;28;20101;-65
2021/11/26 04:18:29;;;;;;;69.22;30.90;;;;;;;;;;5030967;28;20055;-65
2021/11/26 04:20:55;;;;;;;65.32;26.13;;;;;;;;;;5030453;28;20470;-64
2021/11/26 04:23:21;;;;;;;74.60;31.20;;;;;;;;;;5030372;28;20541;-64
2021/11/26 04:25:47;;;;;;;62.47;29.38;;;;;;;;;;5029294;28;20104;-65
2021/11/26 04:28:13;;;;;;;68.63;31.63;;;;;;;;;;5030719;28;20470;-65
2021/11/26 04:30:39;;;;;;;55.78;27.63;;;;;;;;;;5029194;28;20022;-64
2021/11/26 04:33:05;;;;;;;74.43;33.65;;;;;;;;;;5028867;28;20084;-65
2021/11/26 04:35:31;;;;;;;68.90;31.15;;;;;;;;;;5029077;28;20021;-65
2021/11/26 04:37:57;;;;;;;62.17;28.95;;;;;;;;;;5031138;28;20068;-65
2021/11/26 04:40:23;;;;;;;68.70;31.67;;;;;;;;;;5032975;28;20036;-64
2021/11/26 04:42:49;;;;;;;64.75;30.10;;;;;;;;;;5032783;28;20147;-65
2021/11/26 04:45:16;;;;;;;64.07;30.48;;;;;;;;;;5034395;28;20024;-64
2021/11/26 04:47:42;;;;;;;60.17;28.08;;;;;;;;;;5034420;28;20079;-64
2021/11/26 04:50:09;;;;;;;49.15;23.50;;;;;;;;;;5034102;28;20037;-65
2021/11/26 04:52:35;;;;;;;47.95;25.40;;;;;;;;;;5034750;28;20053;-64
2021/11/26 04:55:01;;;;;;;65.75;30.20;;;;;;;;;;5034366;28;20030;-64
2021/11/26 04:57:27;;;;;;;56.92;27.30;;;;;;;;;;5033065;28;20028;-65
2021/11/26 04:59:55;;;;;;;57.25;28.90;;;;;;;;;;5033705;28;20090;-64
2021/11/26 05:02:21;;;;;;;59.22;28.88;;;;;;;;;;5033711;28;20022;-65
2021/11/26 05:04:47;;;;;;;57.83;28.42;;;;;;;;;;5033840;28;20536;-65
2021/11/26 05:07:13;;;;;;;59.13;29.02;;;;;;;;;;5033568;28;20029;-64
2021/11/26 05:09:39;;;;;;;53.55;25.90;;;;;;;;;;5033808;28;20021;-65
2021/11/26 05:12:05;;;;;;;57.10;27.52;;;;;;;;;;5033206;28;20052;-65
2021/11/26 05:14:32;;;;;;;57.20;28.20;;;;;;;;;;5033603;28;20030;-65
2021/11/26 05:16:58;;;;;;;55.00;24.73;;;;;;;;;;5033434;28;20033;-64
2021/11/26 05:19:24;;;;;;;52.75;26.80;;;;;;;;;;5032172;28;20124;-64
2021/11/26 05:21:50;;;;;;;51.03;26.13;;;;;;;;;;5033056;28;20017;-65
2021/11/26 05:24:16;;;;;;;50.85;27.42;;;;;;;;;;5033531;28;20021;-65
2021/11/26 05:26:42;;;;;;;48.88;24.08;;;;;;;;;;5033447;28;20060;-65
2021/11/26 05:29:08;;;;;;;51.63;26.48;;;;;;;;;;5031954;28;20030;-65
2021/11/26 05:31:38;;;;;;;52.85;24.42;;;;;;;;;;5032858;28;20106;-65
2021/11/26 05:34:04;;;;;;;53.72;28.30;;;;;;;;;;5033171;28;20029;-65
2021/11/26 05:36:30;;;;;;;58.95;30.15;;;;;;;;;;5033252;28;20026;-64
2021/11/26 05:38:56;;;;;;;52.10;26.02;;;;;;;;;;5032990;28;20052;-64
2021/11/26 05:41:22;;;;;;;49.78;25.40;;;;;;;;;;5033105;28;20532;-64
2021/11/26 05:43:48;;;;;;;53.78;27.77;;;;;;;;;;5032636;28;20034;-64
2021/11/26 05:46:15;;;;;;;51.67;23.95;;;;;;;;;;5032900;28;20071;-64
2021/11/26 05:48:41;;;;;;;47.53;25.58;;;;;;;;;;5031490;28;20021;-65
2021/11/26 05:51:07;;;;;;;53.05;28.80;;;;;;;;;;5031808;28;20044;-65
2021/11/26 05:53:33;;;;;;;56.75;28.38;;;;;;;;;;5031583;28;20025;-64
2021/11/26 05:55:59;;;;;;;56.92;29.98;;;;;;;;;;5031480;28;20113;-66
2021/11/26 05:58:26;;;;;;;54.85;28.50;;;;;;;;;;5032584;28;20048;-66
2021/11/26 06:00:52;;;;;;;39.55;22.35;;;;;;;;;;5032782;28;20021;-65
2021/11/26 06:03:18;;;;;;;58.72;29.33;;;;;;;;;;5031146;28;20487;-64
2021/11/26 06:05:43;;;;;;;56.60;29.73;;;;;;;;;;5048217;22;20033;-63
2021/11/26 06:08:09;;;;;;;60.22;27.88;;;;;;;;;;5030917;28;20063;-63
2021/11/26 06:10:35;;;;;;;55.10;27.92;;;;;;;;;;5032718;28;20064;-63
2021/11/26 06:13:01;;;;;;;56.28;31.10;;;;;;;;;;5033888;28;20018;-62
2021/11/26 06:15:27;;;;;;;50.42;28.83;;;;;;;;;;5033220;28;20021;-63
2021/11/26 06:17:54;;;;;;;54.85;28.92;;;;;;;;;;5032485;28;20481;-63
2021/11/26 06:20:20;;;;;;;52.30;28.73;;;;;;;;;;5032600;28;20504;-63
2021/11/26 06:22:46;;;;;;;55.33;26.45;;;;;;;;;;5032334;28;20022;-62
2021/11/26 06:25:13;;;;;;;51.63;26.45;;;;;;;;;;5032358;28;20482;-63
2021/11/26 06:27:41;;;;;;;51.67;26.83;;;;;;;;;;5032582;28;20124;-63
2021/11/26 06:30:10;;;;;;;53.45;28.50;;;;;;;;;;5034264;28;20021;-63
2021/11/26 06:32:36;;;;;;;59.88;30.10;;;;;;;;;;5033678;28;20400;-63
2021/11/26 06:35:02;;;;;;;52.95;29.35;;;;;;;;;;5033575;28;20371;-63
2021/11/26 06:37:28;;;;;;;50.80;28.95;;;;;;;;;;5033363;28;20041;-62
2021/11/26 06:39:54;;;;;;;53.00;28.48;;;;;;;;;;5033319;28;20121;-63
2021/11/26 06:42:20;;;;;;;48.72;27.77;;;;;;;;;;5031712;28;20422;-63
2021/11/26 06:44:46;;;;;;;38.65;20.58;;;;;;;;;;5032957;28;20021;-63
2021/11/26 06:47:12;;;;;;;55.35;27.02;;;;;;;;;;5032827;28;20021;-63
2021/11/26 06:49:38;;;;;;;46.75;24.48;;;;;;;;;;5031887;28;20036;-63
2021/11/26 06:52:04;;;;;;;47.90;26.02;;;;;;;;;;5032732;28;20474;-63
2021/11/26 06:54:31;;;;;;;43.03;25.63;;;;;;;;;;5033354;28;20424;-64
2021/11/26 06:56:57;;;;;;;45.72;25.42;;;;;;;;;;5030561;28;20441;-63
2021/11/26 06:59:23;;;;;;;41.20;22.58;;;;;;;;;;5031257;28;20021;-64
2021/11/26 07:01:49;;;;;;;42.03;23.08;;;;;;;;;;5032050;28;20048;-63
2021/11/26 07:04:15;;;;;;;41.08;24.77;;;;;;;;;;5031741;28;20075;-60
2021/11/26 07:06:41;;;;;;;41.33;23.75;;;;;;;;;;5032740;28;20034;-63
2021/11/26 07:09:07;;;;;;;40.53;23.75;;;;;;;;;;5031614;28;20021;-63
2021/11/26 07:11:34;;;;;;;38.15;23.08;;;;;;;;;;5031174;28;20084;-63
2021/11/26 07:14:00;;;;;;;41.00;22.65;;;;;;;;;;5031012;28;20032;-63
2021/11/26 07:16:26;;;;;;;35.38;20.95;;;;;;;;;;5031702;28;20071;-63
2021/11/26 07:18:52;;;;;;;37.85;23.02;;;;;;;;;;5032403;28;20080;-61
2021/11/26 07:21:18;;;;;;;37.05;22.30;;;;;;;;;;5032169;28;20547;-64
2021/11/26 07:23:44;;;;;;;37.80;24.27;;;;;;;;;;5030703;28;20026;-63
2021/11/26 07:26:11;;;;;;;34.75;21.67;;;;;;;;;;5030813;28;20397;-63
2021/11/26 07:28:37;;;;;;;40.50;23.80;;;;;;;;;;5030757;28;20455;-64
2021/11/26 07:31:03;;;;;;;37.83;22.67;;;;;;;;;;5032056;28;20144;-63
2021/11/26 07:33:29;;;;;;;35.00;21.13;;;;;;;;;;5030013;28;20139;-63
2021/11/26 07:35:55;;;;;;;39.53;22.30;;;;;;;;;;5030844;28;20041;-62
2021/11/26 07:38:21;;;;;;;34.10;17.48;;;;;;;;;;5031876;28;20026;-63
2021/11/26 07:40:49;;;;;;;33.95;20.13;;;;;;;;;;5030716;28;20658;-63
2021/11/26 07:43:15;;;;;;;29.83;18.35;;;;;;;;;;5030566;28;20053;-61
2021/11/26 07:45:42;;;;;;;28.90;18.13;;;;;;;;;;5032013;28;20029;-62
2021/11/26 07:48:08;;;;;;;27.50;16.95;;;;;;;;;;5030847;28;20021;-63
2021/11/26 07:50:34;;;;;;;27.92;16.90;;;;;;;;;;5030843;28;20536;-63
2021/11/26 07:53:01;;;;;;;27.25;16.17;;;;;;;;;;5031585;28;20021;-67
2021/11/26 07:55:27;;;;;;;26.35;14.80;;;;;;;;;;5031616;28;20064;-63
2021/11/26 07:57:53;;;;;;;28.33;14.80;;;;;;;;;;5030476;28;20482;-63
2021/11/26 08:00:19;;;;;;;25.50;15.45;;;;;;;;;;5030293;28;20026;-65
2021/11/26 08:02:45;;;;;;;28.45;16.27;;;;;;;;;;5030526;28;20018;-64
2021/11/26 08:05:11;;;;;;;32.17;18.58;;;;;;;;;;5030442;28;20022;-64
2021/11/26 08:07:38;;;;;;;32.70;17.25;;;;;;;;;;5031417;28;20104;-64
2021/11/26 08:10:08;;;;;;;28.52;15.85;;;;;;;;;;5030329;28;20508;-64
2021/11/26 08:12:34;;;;;;;29.70;18.25;;;;;;;;;;5030079;28;20026;-64
2021/11/26 08:15:00;;;;;;;28.27;18.08;;;;;;;;;;5034225;28;20022;-64
2021/11/26 08:17:26;;;;;;;28.85;16.58;;;;;;;;;;5035483;28;20026;-64
2021/11/26 08:19:52;;;;;;;38.25;17.83;;;;;;;;;;5035646;28;20497;-64
2021/11/26 08:22:18;;;;;;;30.60;17.75;;;;;;;;;;5034472;28;20025;-64
2021/11/26 08:24:44;;;;;;;29.20;17.80;;;;;;;;;;5035653;28;20026;-63
2021/11/26 08:27:10;;;;;;;30.10;17.38;;;;;;;;;;5035613;28;20022;-63
2021/11/26 08:29:36;;;;;;;27.55;15.23;;;;;;;;;;5035798;28;20029;-63
2021/11/26 08:32:02;;;;;;;30.48;17.85;;;;;;;;;;5035316;28;20037;-62
2021/11/26 08:34:28;;;;;;;25.75;14.73;;;;;;;;;;5035482;28;20044;-63
2021/11/26 08:36:54;;;;;;;28.55;16.27;;;;;;;;;;5035014;28;20037;-62
2021/11/26 08:39:20;;;;;;;27.42;16.17;;;;;;;;;;5035770;28;20033;-66
2021/11/26 08:41:46;;;;;;;26.70;14.82;;;;;;;;;;5034146;28;20022;-66
2021/11/26 08:44:12;;;;;;;25.77;17.60;;;;;;;;;;5034511;28;20440;-65
2021/11/26 08:46:38;;;;;;;27.70;17.08;;;;;;;;;;5035697;28;20100;-65
2021/11/26 08:49:04;;;;;;;27.23;17.52;;;;;;;;;;5035558;28;20029;-65
2021/11/26 08:51:35;;;;;;;28.05;18.75;;;;;;;;;;5034081;28;20095;-66
2021/11/26 08:54:01;;;;;;;25.75;15.43;;;;;;;;;;5035593;28;20021;-66
2021/11/26 08:56:27;;;;;;;25.55;16.08;;;;;;;;;;5034427;28;20025;-65
2021/11/26 08:58:53;;;;;;;27.75;16.85;;;;;;;;;;5035716;28;20029;-66
2021/11/26 09:01:20;;;;;;;26.48;17.63;;;;;;;;;;5035619;28;20025;-66
2021/11/26 09:03:46;;;;;;;28.42;17.73;;;;;;;;;;5035317;28;20389;-66
2021/11/26 09:06:15;;;;;;;26.90;16.85;;;;;;;;;;5035368;28;20026;-65
2021/11/26 09:08:41;;;;;;;28.88;17.73;;;;;;;;;;5034137;28;20029;-65
2021/11/26 09:11:06;;;;;;;27.58;17.70;;;;;;;;;;5034117;28;20049;-65
2021/11/26 09:13:32;;;;;;;32.95;18.80;;;;;;;;;;5033997;28;20072;-66
2021/11/26 09:15:58;;;;;;;32.05;19.33;;;;;;;;;;5035138;28;20477;-65
2021/11/26 09:18:25;;;;;;;33.83;20.10;;;;;;;;;;5033788;28;20029;-66
2021/11/26 09:20:53;;;;;;;31.15;19.35;;;;;;;;;;5033817;28;20021;-66
2021/11/26 09:23:20;;;;;;;35.70;20.38;;;;;;;;;;5035161;28;20385;-65
2021/11/26 09:25:46;;;;;;;31.83;19.23;;;;;;;;;;5034750;28;20026;-57
2021/11/26 09:28:12;;;;;;;35.40;20.50;;;;;;;;;;5034947;28;20099;-63
2021/11/26 09:30:38;;;;;;;38.33;20.42;;;;;;;;;;5033585;28;20034;-63
2021/11/26 09:33:06;;;;;;;36.33;22.00;;;;;;;;;;5033084;28;20040;-61
2021/11/26 09:35:32;;;;;;;39.85;21.02;;;;;;;;;;5034446;28;20072;-62
2021/11/26 09:37:59;;;;;;;37.20;23.45;;;;;;;;;;5032893;28;20068;-62
2021/11/26 09:40:25;;;;;;;39.85;23.15;;;;;;;;;;5034415;28;20396;-62
2021/11/26 09:42:51;;;;;;;45.97;23.80;;;;;;;;;;5034013;28;20535;-60
2021/11/26 09:45:21;;;;;;;41.88;24.77;;;;;;;;;;5034856;28;20049;-63
2021/11/26 09:47:47;;;;;;;42.63;23.27;;;;;;;;;;5034079;28;20406;-63
2021/11/26 09:50:13;;;;;;;41.80;22.88;;;;;;;;;;5034168;28;20129;-62
2021/11/26 09:52:40;;;;;;;42.20;23.25;;;;;;;;;;5033899;28;20076;-63
2021/11/26 09:55:08;;;;;;;41.25;23.05;;;;;;;;;;5034409;28;20036;-62
2021/11/26 09:57:34;;;;;;;38.20;21.90;;;;;;;;;;5034182;28;20029;-62
2021/11/26 10:00:00;;;;;;;41.60;23.08;;;;;;;;;;5032619;28;20064;-63
2021/11/26 10:02:26;;;;;;;43.83;22.92;;;;;;;;;;5033783;28;20025;-61
2021/11/26 10:05:01;;;;;;;39.95;21.73;;;;;;;;;;5034097;28;20025;-63
2021/11/26 10:07:28;;;;;;;38.45;22.35;;;;;;;;;;5032939;28;20041;-64
2021/11/26 10:10:05;;;;;;;49.65;25.65;;;;;;;;;;5032892;28;20060;-63
2021/11/26 10:12:31;;;;;;;35.88;19.90;;;;;;;;;;5033562;28;20469;-63
2021/11/26 10:14:57;;;;;;;41.15;22.67;;;;;;;;;;5033810;28;20144;-63
2021/11/26 10:17:24;;;;;;;42.08;22.35;;;;;;;;;;5033788;28;20112;-63
2021/11/26 10:19:55;;;;;;;30.58;16.98;;;;;;;;;;5032462;28;20040;-63
2021/11/26 10:22:21;;;;;;;41.28;22.05;;;;;;;;;;5033249;28;20022;-65
2021/11/26 10:24:59;;;;;;;39.42;22.42;;;;;;;;;;5033650;28;20021;-64
2021/11/26 10:27:37;;;;;;;38.50;19.95;;;;;;;;;;5033874;28;20021;-64
2021/11/26 10:30:17;;;;;;;41.22;20.48;;;;;;;;;;5033318;28;20048;-64
2021/11/26 10:32:55;;;;;;;44.33;21.98;;;;;;;;;;5033864;28;20037;-64
2021/11/26 10:35:21;;;;;;;42.78;21.90;;;;;;;;;;5031572;28;20025;-67
2021/11/26 10:38:06;;;;;;;40.25;22.60;;;;;;;;;;5031534;28;20036;-68
2021/11/26 10:40:33;;;;;;;41.63;22.52;;;;;;;;;;5032283;28;20112;-69
2021/11/26 10:43:01;;;;;;;41.90;24.25;;;;;;;;;;5032135;28;20509;-68
2021/11/26 10:46:28;;;;;;;45.95;21.95;;;;;;;;;;5033249;28;20096;-66
2021/11/26 10:48:48;;;;;;;44.30;21.70;;;;;;;;;;5032506;28;20025;-65
2021/11/26 10:57:21;;;;;;;37.00;18.30;;;;;;;;;;5033099;28;20038;-64
2021/11/26 10:59:40;;;;;;;39.80;20.88;;;;;;;;;;5031854;28;20021;-63
2021/11/26 11:02:07;;;;;;;34.78;18.67;;;;;;;;;;5032330;28;20033;-65
2021/11/26 11:04:37;;;;;;;37.33;19.35;;;;;;;;;;5032524;28;20042;-65
2021/11/26 11:07:05;;;;;;;35.72;19.95;;;;;;;;;;5031043;28;20041;-65
2021/11/26 11:09:41;;;;;;;31.58;15.95;;;;;;;;;;5032348;28;20504;-64
2021/11/26 11:12:08;;;;;;;30.33;16.70;;;;;;;;;;5031959;28;20441;-64
2021/11/26 11:14:34;;;;;;;32.17;15.43;;;;;;;;;;5030951;28;20082;-65
2021/11/26 11:17:00;;;;;;;33.88;16.88;;;;;;;;;;5032069;28;20025;-65
2021/11/26 11:19:27;;;;;;;31.85;14.80;;;;;;;;;;5032222;28;20044;-64
2021/11/26 11:21:54;;;;;;;28.98;16.77;;;;;;;;;;5030450;28;20120;-65
2021/11/26 11:24:21;;;;;;;33.40;16.88;;;;;;;;;;5032226;28;20052;-64
2021/11/26 11:26:48;;;;;;;31.92;15.68;;;;;;;;;;5030609;28;20038;-64
2021/11/26 11:29:15;;;;;;;27.13;16.10;;;;;;;;;;5032184;28;20156;-62
2021/11/26 11:31:42;;;;;;;28.20;13.57;;;;;;;;;;5031912;28;20107;-65
2021/11/26 11:34:09;;;;;;;30.08;17.48;;;;;;;;;;5032058;28;20033;-64
2021/11/26 11:36:36;;;;;;;28.92;16.15;;;;;;;;;;5031658;28;20026;-64
2021/11/26 11:39:03;;;;;;;28.10;15.67;;;;;;;;;;5030532;28;20029;-64
2021/11/26 11:41:29;;;;;;;28.95;17.27;;;;;;;;;;5030516;28;20095;-63
2021/11/26 11:43:55;;;;;;;30.23;16.23;;;;;;;;;;5030618;28;20033;-64
2021/11/26 11:46:21;;;;;;;24.02;13.50;;;;;;;;;;5032435;28;20025;-65
2021/11/26 11:48:47;;;;;;;28.88;13.15;;;;;;;;;;5032204;28;20079;-64
2021/11/26 11:51:23;;;;;;;27.70;15.93;;;;;;;;;;5032448;28;20037;-67
2021/11/26 11:54:00;;;;;;;24.45;13.27;;;;;;;;;;5032555;28;20366;-67
2021/11/26 11:56:26;;;;;;;25.50;13.20;;;;;;;;;;5030947;28;20500;-67
2021/11/26 11:58:53;;;;;;;29.00;14.70;;;;;;;;;;5031967;28;20070;-68
2021/11/26 12:01:24;;;;;;;29.35;14.88;;;;;;;;;;5032247;28;20021;-68
2021/11/26 12:03:51;;;;;;;22.40;12.65;;;;;;;;;;5032199;28;20628;-68
2021/11/26 12:06:17;;;;;;;25.70;12.68;;;;;;;;;;5031804;28;20025;-67
2021/11/26 12:08:45;;;;;;;23.23;12.30;;;;;;;;;;5030180;28;20033;-67
2021/11/26 12:11:22;;;;;;;25.10;15.07;;;;;;;;;;5031587;28;20532;-67
2021/11/26 12:13:59;;;;;;;23.30;14.07;;;;;;;;;;5029846;28;20299;-67
2021/11/26 12:16:25;;;;;;;24.52;13.55;;;;;;;;;;5031806;28;20056;-68
2021/11/26 12:18:52;;;;;;;25.75;13.77;;;;;;;;;;5032597;28;20071;-68
2021/11/26 12:21:20;;;;;;;24.63;14.38;;;;;;;;;;5031474;28;20028;-68
2021/11/26 12:24:06;;;;;;;23.92;14.05;;;;;;;;;;5031167;28;20022;-68
2021/11/26 12:26:58;;;;;;;22.77;13.32;;;;;;;;;;5034469;28;20493;-68
2021/11/26 12:29:35;;;;;;;22.67;13.40;;;;;;;;;;5032726;28;20033;-68
2021/11/26 12:32:27;;;;;;;24.00;13.20;;;;;;;;;;5032388;28;20028;-68
2021/11/26 12:34:58;;;;;;;32.55;14.52;;;;;;;;;;5028302;28;20128;-68
2021/11/26 12:37:25;;;;;;;23.98;13.98;;;;;;;;;;5032892;28;20036;-67
2021/11/26 12:39:52;;;;;;;25.45;14.48;;;;;;;;;;5031869;28;20438;-64
2021/11/26 12:42:19;;;;;;;22.38;11.18;;;4.50;99.90;;;;;;5029849;28;20026;-64
2021/11/26 12:45:00;;;;;;;24.42;11.43;;;5.40;99.90;;;;;;5029264;28;20049;-65
2021/11/26 12:47:39;;;;;;;21.52;12.05;;;5.40;99.90;;;;;;5031035;28;20022;-63
2021/11/26 12:53:07;;;;;;;22.10;10.98;;;5.50;99.90;;;;;;5031319;28;20508;-63
2021/11/26 12:55:35;;;;;;;24.60;12.25;;;5.70;99.90;;;;;;5031396;28;20728;-63
2021/11/26 12:58:02;;;;;;;24.65;13.02;;;5.80;99.90;;;;;;5029884;28;20022;-64
2021/11/26 13:00:28;;;;;;;29.20;14.30;;;5.70;99.90;;;;;;5032173;28;20044;-63
2021/11/26 13:03:04;;;;;;;23.33;12.82;;;5.70;99.90;;;;;;4684496;28;9999966;-62
2021/11/26 13:05:30;;;;;;;25.92;13.52;;;5.90;99.90;;;;;;5030904;28;20053;-62
2021/11/26 13:07:56;;;;;;;21.38;11.93;;;5.90;99.90;;;;;;5032069;28;20466;-62
2021/11/26 13:10:26;;;;;;;22.02;12.02;;;5.90;99.90;;;;;;5032352;28;20040;-63
2021/11/26 13:12:54;;;;;;;24.73;12.75;;;5.90;99.90;;;;;;5031363;28;20053;-64
2021/11/26 13:15:22;;;;;;;20.05;10.93;;;5.80;99.90;;;;;;5030452;28;20500;-63
2021/11/26 13:17:50;;;;;;;20.95;10.60;;;5.70;99.90;;;;;;5031131;28;20030;-64
2021/11/26 13:20:18;;;;;;;23.73;12.00;;;5.60;99.90;;;;;;5029602;28;20034;-64
2021/11/26 13:22:45;;;;;;;19.45;11.45;;;5.60;99.90;;;;;;5031195;28;20040;-63
2021/11/26 13:25:14;;;;;;;21.80;11.70;;;5.50;99.90;;;;;;5032871;28;20179;-64
2021/11/26 13:27:50;;;;;;;19.25;10.38;;;5.60;99.90;;;;;;5029648;28;20087;-64
2021/11/26 13:30:19;;;;;;;24.95;12.27;;;5.70;99.90;;;;;;5030053;28;20186;-64
2021/11/26 13:32:44;;;;;;;21.10;10.93;;;5.80;99.90;;;;;;5030290;28;20045;-65
2021/11/26 13:35:10;;;;;;;20.17;11.57;;;5.90;99.90;;;;;;5029883;28;20033;-63
2021/11/26 13:37:36;;;;;;;20.48;10.52;;;6.10;99.90;;;;;;5029643;28;20087;-63
2021/11/26 13:40:02;;;;;;;20.67;11.75;;;6.00;99.90;;;;;;5030288;28;20085;-63
2021/11/26 13:42:28;;;;;;;22.48;12.07;;;6.10;99.90;;;;;;5030774;28;20037;-63
2021/11/26 13:44:55;;;;;;;23.23;12.32;;;6.30;99.90;;;;;;5029946;28;20070;-63
2021/11/26 13:47:23;;;;;;;27.70;13.30;;;6.20;99.90;;;;;;5030088;28;20030;-63
2021/11/26 13:49:51;;;;;;;24.27;12.00;;;6.00;99.90;;;;;;5031719;28;20398;-64
2021/11/26 13:52:24;;;;;;;19.30;11.20;;;5.90;99.90;;;;;;5030971;28;20030;-64
2021/11/26 13:54:50;;;;;;;22.27;10.38;;;;;;;;;;5031351;28;20029;-64
2021/11/26 13:57:29;;;;;;;23.80;11.63;;;;;;;;;;5031463;28;20143;-64
2021/11/26 14:00:05;;;;;;;19.85;10.90;;;;;;;;;;5031451;28;20029;-64
2021/11/26 14:02:31;;;;;;;21.45;10.18;;;;;;;;;;5032664;28;20017;-65
2021/11/26 14:04:57;;;;;;;19.23;9.30;;;;;;;;;;4683480;28;9999793;-63
2021/11/26 14:07:24;;;;;;;21.00;11.23;;;;;;;;;;5030568;28;20059;-65
2021/11/26 14:10:02;;;;;;;21.27;11.02;;;;;;;;;;5029652;28;20103;-64
2021/11/26 14:12:29;;;;;;;22.20;10.60;;;;;;;;;;5028535;28;20044;-64
2021/11/26 14:14:55;;;;;;;18.45;9.68;;;;;;;;;;5031300;28;20032;-65
2021/11/26 14:17:25;;;;;;;21.33;9.38;;;;;;;;;;5030588;28;20029;-64
2021/11/26 14:19:54;;;;;;;17.05;8.77;;;;;;;;;;5030032;28;20109;-65
2021/11/26 14:22:22;;;;;;;15.80;8.38;;;;;;;;;;5030648;28;20435;-64